sensor_id;sensor_type;location;lat;lon;timestamp;P1;durP1;ratioP1;P2;durP2;ratioP2
76127;SDS011;64873;50.102;14.434;2024-02-15T00:01:21;10.85;;;3.90;;
76127;SDS011;64873;50.102;14.434;2024-02-15T00:03:46;10.48;;;3.67;;
76127;SDS011;64873;50.102;14.434;2024-02-15T00:06:12;7.45;;;4.00;;
76127;SDS011;64873;50.102;14.434;2024-02-15T00:08:37;6.78;;;3.85;;
76127;SDS011;64873;50.102;14.434;2024-02-15T00:11:02;8.00;;;3.72;;
76127;SDS011;64873;50.102;14.434;2024-02-15T00:13:28;5.93;;;3.70;;
76127;SDS011;64873;50.102;14.434;2024-02-15T00:15:53;7.40;;;3.90;;
76127;SDS011;64873;50.102;14.434;2024-02-15T00:18:19;6.50;;;3.70;;
76127;SDS011;64873;50.102;14.434;2024-02-15T00:20:44;7.05;;;3.67;;
76127;SDS011;64873;50.102;14.434;2024-02-15T00:23:10;7.00;;;3.58;;
76127;SDS011;64873;50.102;14.434;2024-02-15T00:25:35;8.90;;;4.18;;
76127;SDS011;64873;50.102;14.434;2024-02-15T00:28:00;10.18;;;4.35;;
76127;SDS011;64873;50.102;14.434;2024-02-15T00:30:27;8.88;;;4.00;;
76127;SDS011;64873;50.102;14.434;2024-02-15T00:32:52;7.65;;;4.07;;
76127;SDS011;64873;50.102;14.434;2024-02-15T00:35:18;8.75;;;4.35;;
76127;SDS011;64873;50.102;14.434;2024-02-15T00:37:44;7.05;;;4.00;;
76127;SDS011;64873;50.102;14.434;2024-02-15T00:40:10;10.95;;;4.70;;
76127;SDS011;64873;50.102;14.434;2024-02-15T00:42:36;10.30;;;4.25;;
76127;SDS011;64873;50.102;14.434;2024-02-15T00:45:02;6.38;;;4.03;;
76127;SDS011;64873;50.102;14.434;2024-02-15T00:47:28;7.40;;;4.03;;
76127;SDS011;64873;50.102;14.434;2024-02-15T00:49:54;9.20;;;4.07;;
76127;SDS011;64873;50.102;14.434;2024-02-15T00:52:19;6.88;;;4.03;;
76127;SDS011;64873;50.102;14.434;2024-02-15T00:54:45;8.55;;;4.60;;
76127;SDS011;64873;50.102;14.434;2024-02-15T00:57:11;9.80;;;4.82;;
76127;SDS011;64873;50.102;14.434;2024-02-15T00:59:36;12.10;;;4.45;;
76127;SDS011;64873;50.102;14.434;2024-02-15T01:02:02;8.00;;;4.53;;
76127;SDS011;64873;50.102;14.434;2024-02-15T01:04:28;10.95;;;4.30;;
76127;SDS011;64873;50.102;14.434;2024-02-15T01:06:54;7.93;;;4.22;;
76127;SDS011;64873;50.102;14.434;2024-02-15T01:09:21;7.47;;;3.97;;
76127;SDS011;64873;50.102;14.434;2024-02-15T01:11:47;7.93;;;4.40;;
76127;SDS011;64873;50.102;14.434;2024-02-15T01:14:13;8.35;;;4.43;;
76127;SDS011;64873;50.102;14.434;2024-02-15T01:16:38;7.53;;;4.40;;
76127;SDS011;64873;50.102;14.434;2024-02-15T01:19:03;9.20;;;4.65;;
76127;SDS011;64873;50.102;14.434;2024-02-15T01:21:30;5.43;;;4.00;;
76127;SDS011;64873;50.102;14.434;2024-02-15T01:23:55;8.52;;;4.57;;
76127;SDS011;64873;50.102;14.434;2024-02-15T01:26:21;6.47;;;3.97;;
76127;SDS011;64873;50.102;14.434;2024-02-15T01:28:46;8.15;;;4.43;;
76127;SDS011;64873;50.102;14.434;2024-02-15T01:31:11;6.57;;;4.00;;
76127;SDS011;64873;50.102;14.434;2024-02-15T01:33:38;9.63;;;4.75;;
76127;SDS011;64873;50.102;14.434;2024-02-15T01:36:03;9.63;;;4.68;;
76127;SDS011;64873;50.102;14.434;2024-02-15T01:38:29;11.05;;;4.55;;
76127;SDS011;64873;50.102;14.434;2024-02-15T01:40:55;10.95;;;4.35;;
76127;SDS011;64873;50.102;14.434;2024-02-15T01:43:20;7.05;;;4.22;;
76127;SDS011;64873;50.102;14.434;2024-02-15T01:45:46;8.50;;;4.40;;
76127;SDS011;64873;50.102;14.434;2024-02-15T01:48:14;11.65;;;5.25;;
76127;SDS011;64873;50.102;14.434;2024-02-15T01:50:40;7.53;;;3.88;;
76127;SDS011;64873;50.102;14.434;2024-02-15T01:53:07;8.25;;;4.57;;
76127;SDS011;64873;50.102;14.434;2024-02-15T01:55:33;8.82;;;4.45;;
76127;SDS011;64873;50.102;14.434;2024-02-15T01:58:00;7.55;;;4.35;;
76127;SDS011;64873;50.102;14.434;2024-02-15T02:00:26;7.60;;;4.60;;
76127;SDS011;64873;50.102;14.434;2024-02-15T02:02:53;9.95;;;5.32;;
76127;SDS011;64873;50.102;14.434;2024-02-15T02:05:19;9.13;;;5.18;;
76127;SDS011;64873;50.102;14.434;2024-02-15T02:07:44;10.65;;;4.95;;
76127;SDS011;64873;50.102;14.434;2024-02-15T02:10:10;8.88;;;4.32;;
76127;SDS011;64873;50.102;14.434;2024-02-15T02:12:39;10.65;;;4.70;;
76127;SDS011;64873;50.102;14.434;2024-02-15T02:15:09;6.88;;;4.35;;
76127;SDS011;64873;50.102;14.434;2024-02-15T02:17:36;9.73;;;4.45;;
76127;SDS011;64873;50.102;14.434;2024-02-15T02:20:02;8.57;;;5.03;;
76127;SDS011;64873;50.102;14.434;2024-02-15T02:22:33;9.57;;;4.50;;
76127;SDS011;64873;50.102;14.434;2024-02-15T02:25:06;6.38;;;4.13;;
76127;SDS011;64873;50.102;14.434;2024-02-15T02:27:33;9.50;;;4.57;;
76127;SDS011;64873;50.102;14.434;2024-02-15T02:29:59;8.88;;;5.22;;
76127;SDS011;64873;50.102;14.434;2024-02-15T02:32:27;7.40;;;4.55;;
76127;SDS011;64873;50.102;14.434;2024-02-15T02:34:52;10.27;;;5.07;;
76127;SDS011;64873;50.102;14.434;2024-02-15T02:37:22;8.55;;;4.72;;
76127;SDS011;64873;50.102;14.434;2024-02-15T02:39:49;9.75;;;4.57;;
76127;SDS011;64873;50.102;14.434;2024-02-15T02:42:14;10.48;;;4.68;;
76127;SDS011;64873;50.102;14.434;2024-02-15T02:44:40;9.55;;;5.10;;
76127;SDS011;64873;50.102;14.434;2024-02-15T02:47:05;7.82;;;4.72;;
76127;SDS011;64873;50.102;14.434;2024-02-15T02:49:31;7.03;;;4.47;;
76127;SDS011;64873;50.102;14.434;2024-02-15T02:51:56;8.98;;;4.60;;
76127;SDS011;64873;50.102;14.434;2024-02-15T02:54:22;7.60;;;4.40;;
76127;SDS011;64873;50.102;14.434;2024-02-15T02:56:47;12.88;;;5.03;;
76127;SDS011;64873;50.102;14.434;2024-02-15T02:59:12;9.98;;;5.43;;
76127;SDS011;64873;50.102;14.434;2024-02-15T03:01:38;8.95;;;4.80;;
76127;SDS011;64873;50.102;14.434;2024-02-15T03:04:04;9.02;;;4.53;;
76127;SDS011;64873;50.102;14.434;2024-02-15T03:06:30;10.73;;;5.00;;
76127;SDS011;64873;50.102;14.434;2024-02-15T03:08:55;9.32;;;4.90;;
76127;SDS011;64873;50.102;14.434;2024-02-15T03:11:22;5.75;;;4.07;;
76127;SDS011;64873;50.102;14.434;2024-02-15T03:13:47;10.73;;;4.90;;
76127;SDS011;64873;50.102;14.434;2024-02-15T03:16:14;7.25;;;4.20;;
76127;SDS011;64873;50.102;14.434;2024-02-15T03:18:39;8.57;;;5.18;;
76127;SDS011;64873;50.102;14.434;2024-02-15T03:21:06;8.57;;;4.90;;
76127;SDS011;64873;50.102;14.434;2024-02-15T03:23:35;10.32;;;4.97;;
76127;SDS011;64873;50.102;14.434;2024-02-15T03:26:02;7.07;;;4.47;;
76127;SDS011;64873;50.102;14.434;2024-02-15T03:28:28;8.30;;;4.38;;
76127;SDS011;64873;50.102;14.434;2024-02-15T03:30:54;7.68;;;4.28;;
76127;SDS011;64873;50.102;14.434;2024-02-15T03:33:20;6.18;;;4.05;;
76127;SDS011;64873;50.102;14.434;2024-02-15T03:35:51;9.65;;;4.65;;
76127;SDS011;64873;50.102;14.434;2024-02-15T03:38:16;7.10;;;4.30;;
76127;SDS011;64873;50.102;14.434;2024-02-15T03:40:42;9.48;;;5.07;;
76127;SDS011;64873;50.102;14.434;2024-02-15T03:43:07;10.57;;;4.63;;
76127;SDS011;64873;50.102;14.434;2024-02-15T03:45:33;6.88;;;4.13;;
76127;SDS011;64873;50.102;14.434;2024-02-15T03:47:59;7.15;;;4.00;;
76127;SDS011;64873;50.102;14.434;2024-02-15T03:50:24;6.10;;;3.80;;
76127;SDS011;64873;50.102;14.434;2024-02-15T03:52:50;6.57;;;4.22;;
76127;SDS011;64873;50.102;14.434;2024-02-15T03:55:16;6.68;;;4.05;;
76127;SDS011;64873;50.102;14.434;2024-02-15T03:57:41;8.45;;;3.97;;
76127;SDS011;64873;50.102;14.434;2024-02-15T04:00:08;5.85;;;4.00;;
76127;SDS011;64873;50.102;14.434;2024-02-15T04:02:45;8.88;;;4.05;;
76127;SDS011;64873;50.102;14.434;2024-02-15T04:05:13;6.78;;;4.43;;
76127;SDS011;64873;50.102;14.434;2024-02-15T04:07:40;8.80;;;4.35;;
76127;SDS011;64873;50.102;14.434;2024-02-15T04:10:06;9.32;;;4.47;;
76127;SDS011;64873;50.102;14.434;2024-02-15T04:12:33;8.23;;;4.20;;
76127;SDS011;64873;50.102;14.434;2024-02-15T04:14:58;10.02;;;4.63;;
76127;SDS011;64873;50.102;14.434;2024-02-15T04:17:30;8.68;;;4.38;;
76127;SDS011;64873;50.102;14.434;2024-02-15T04:19:59;6.68;;;3.90;;
76127;SDS011;64873;50.102;14.434;2024-02-15T04:22:25;8.13;;;4.80;;
76127;SDS011;64873;50.102;14.434;2024-02-15T04:24:51;8.05;;;4.55;;
76127;SDS011;64873;50.102;14.434;2024-02-15T04:27:16;7.88;;;4.53;;
76127;SDS011;64873;50.102;14.434;2024-02-15T04:29:45;8.68;;;5.05;;
76127;SDS011;64873;50.102;14.434;2024-02-15T04:32:11;7.55;;;4.15;;
76127;SDS011;64873;50.102;14.434;2024-02-15T04:34:37;8.27;;;4.13;;
76127;SDS011;64873;50.102;14.434;2024-02-15T04:37:03;8.25;;;4.55;;
76127;SDS011;64873;50.102;14.434;2024-02-15T04:39:35;8.32;;;5.13;;
76127;SDS011;64873;50.102;14.434;2024-02-15T04:42:01;7.70;;;4.60;;
76127;SDS011;64873;50.102;14.434;2024-02-15T04:44:31;8.60;;;4.85;;
76127;SDS011;64873;50.102;14.434;2024-02-15T04:47:00;7.25;;;4.68;;
76127;SDS011;64873;50.102;14.434;2024-02-15T04:49:25;7.68;;;5.05;;
76127;SDS011;64873;50.102;14.434;2024-02-15T04:51:54;8.85;;;5.00;;
76127;SDS011;64873;50.102;14.434;2024-02-15T04:54:19;8.13;;;5.20;;
76127;SDS011;64873;50.102;14.434;2024-02-15T04:56:45;8.45;;;4.68;;
76127;SDS011;64873;50.102;14.434;2024-02-15T04:59:11;7.50;;;5.03;;
76127;SDS011;64873;50.102;14.434;2024-02-15T05:01:42;8.18;;;4.32;;
76127;SDS011;64873;50.102;14.434;2024-02-15T05:04:09;10.20;;;5.40;;
76127;SDS011;64873;50.102;14.434;2024-02-15T05:06:35;8.00;;;4.68;;
76127;SDS011;64873;50.102;14.434;2024-02-15T05:09:01;8.05;;;4.85;;
76127;SDS011;64873;50.102;14.434;2024-02-15T05:11:34;9.82;;;5.03;;
76127;SDS011;64873;50.102;14.434;2024-02-15T05:14:04;8.40;;;5.13;;
76127;SDS011;64873;50.102;14.434;2024-02-15T05:16:31;7.43;;;4.30;;
76127;SDS011;64873;50.102;14.434;2024-02-15T05:19:07;10.15;;;5.60;;
76127;SDS011;64873;50.102;14.434;2024-02-15T05:21:32;9.00;;;5.40;;
76127;SDS011;64873;50.102;14.434;2024-02-15T05:23:58;10.10;;;5.50;;
76127;SDS011;64873;50.102;14.434;2024-02-15T05:26:24;10.30;;;5.07;;
76127;SDS011;64873;50.102;14.434;2024-02-15T05:28:49;9.48;;;5.50;;
76127;SDS011;64873;50.102;14.434;2024-02-15T05:31:18;6.72;;;4.60;;
76127;SDS011;64873;50.102;14.434;2024-02-15T05:33:49;8.05;;;5.20;;
76127;SDS011;64873;50.102;14.434;2024-02-15T05:36:15;8.52;;;5.10;;
76127;SDS011;64873;50.102;14.434;2024-02-15T05:38:48;9.10;;;4.88;;
76127;SDS011;64873;50.102;14.434;2024-02-15T05:41:15;9.23;;;5.47;;
76127;SDS011;64873;50.102;14.434;2024-02-15T05:43:41;7.53;;;5.00;;
76127;SDS011;64873;50.102;14.434;2024-02-15T05:46:07;8.32;;;5.47;;
76127;SDS011;64873;50.102;14.434;2024-02-15T05:48:33;8.23;;;5.10;;
76127;SDS011;64873;50.102;14.434;2024-02-15T05:51:05;9.82;;;5.28;;
76127;SDS011;64873;50.102;14.434;2024-02-15T05:53:32;10.13;;;4.75;;
76127;SDS011;64873;50.102;14.434;2024-02-15T05:56:07;6.97;;;4.53;;
76127;SDS011;64873;50.102;14.434;2024-02-15T05:58:34;9.43;;;4.97;;
76127;SDS011;64873;50.102;14.434;2024-02-15T06:01:00;10.07;;;5.45;;
76127;SDS011;64873;50.102;14.434;2024-02-15T06:03:30;8.57;;;5.18;;
76127;SDS011;64873;50.102;14.434;2024-02-15T06:08:31;7.45;;;4.97;;
76127;SDS011;64873;50.102;14.434;2024-02-15T06:10:57;7.70;;;5.13;;
76127;SDS011;64873;50.102;14.434;2024-02-15T06:13:23;9.73;;;5.57;;
76127;SDS011;64873;50.102;14.434;2024-02-15T06:15:50;11.07;;;5.65;;
76127;SDS011;64873;50.102;14.434;2024-02-15T06:18:24;8.82;;;5.15;;
76127;SDS011;64873;50.102;14.434;2024-02-15T06:20:52;11.18;;;6.13;;
76127;SDS011;64873;50.102;14.434;2024-02-15T06:23:18;8.82;;;5.57;;
76127;SDS011;64873;50.102;14.434;2024-02-15T06:25:44;10.20;;;5.80;;
76127;SDS011;64873;50.102;14.434;2024-02-15T06:28:12;8.30;;;5.70;;
76127;SDS011;64873;50.102;14.434;2024-02-15T06:30:44;9.65;;;5.65;;
76127;SDS011;64873;50.102;14.434;2024-02-15T06:33:28;11.25;;;6.07;;
76127;SDS011;64873;50.102;14.434;2024-02-15T06:36:12;13.05;;;6.10;;
76127;SDS011;64873;50.102;14.434;2024-02-15T06:38:56;8.50;;;5.85;;
76127;SDS011;64873;50.102;14.434;2024-02-15T06:41:40;9.20;;;5.57;;
76127;SDS011;64873;50.102;14.434;2024-02-15T06:44:05;14.32;;;6.00;;
76127;SDS011;64873;50.102;14.434;2024-02-15T06:46:31;10.23;;;5.82;;
76127;SDS011;64873;50.102;14.434;2024-02-15T06:48:56;10.23;;;5.88;;
76127;SDS011;64873;50.102;14.434;2024-02-15T06:51:23;9.00;;;5.72;;
76127;SDS011;64873;50.102;14.434;2024-02-15T06:53:49;8.40;;;5.50;;
76127;SDS011;64873;50.102;14.434;2024-02-15T06:56:16;9.48;;;5.57;;
76127;SDS011;64873;50.102;14.434;2024-02-15T06:58:43;8.60;;;5.20;;
76127;SDS011;64873;50.102;14.434;2024-02-15T07:01:08;9.93;;;5.75;;
76127;SDS011;64873;50.102;14.434;2024-02-15T07:03:33;9.18;;;5.75;;
76127;SDS011;64873;50.102;14.434;2024-02-15T07:05:59;16.05;;;6.13;;
76127;SDS011;64873;50.102;14.434;2024-02-15T07:08:24;10.80;;;5.30;;
76127;SDS011;64873;50.102;14.434;2024-02-15T07:10:50;9.00;;;5.65;;
76127;SDS011;64873;50.102;14.434;2024-02-15T07:13:19;10.80;;;5.95;;
76127;SDS011;64873;50.102;14.434;2024-02-15T07:15:45;10.10;;;5.70;;
76127;SDS011;64873;50.102;14.434;2024-02-15T07:18:10;10.55;;;5.75;;
76127;SDS011;64873;50.102;14.434;2024-02-15T07:20:41;13.35;;;5.80;;
76127;SDS011;64873;50.102;14.434;2024-02-15T07:23:06;9.10;;;5.75;;
76127;SDS011;64873;50.102;14.434;2024-02-15T07:25:32;10.48;;;7.10;;
76127;SDS011;64873;50.102;14.434;2024-02-15T07:27:57;8.02;;;5.78;;
76127;SDS011;64873;50.102;14.434;2024-02-15T07:30:23;10.15;;;6.40;;
76127;SDS011;64873;50.102;14.434;2024-02-15T07:32:49;11.55;;;5.72;;
76127;SDS011;64873;50.102;14.434;2024-02-15T07:35:15;10.43;;;5.93;;
76127;SDS011;64873;50.102;14.434;2024-02-15T07:37:54;9.30;;;5.53;;
76127;SDS011;64873;50.102;14.434;2024-02-15T07:40:22;10.07;;;5.85;;
76127;SDS011;64873;50.102;14.434;2024-02-15T07:42:48;12.70;;;5.95;;
76127;SDS011;64873;50.102;14.434;2024-02-15T07:45:14;9.52;;;5.55;;
76127;SDS011;64873;50.102;14.434;2024-02-15T07:47:40;8.40;;;5.22;;
76127;SDS011;64873;50.102;14.434;2024-02-15T07:50:05;8.80;;;5.10;;
76127;SDS011;64873;50.102;14.434;2024-02-15T07:52:34;8.43;;;4.97;;
76127;SDS011;64873;50.102;14.434;2024-02-15T07:55:00;9.77;;;5.30;;
76127;SDS011;64873;50.102;14.434;2024-02-15T07:57:33;7.40;;;4.85;;
76127;SDS011;64873;50.102;14.434;2024-02-15T07:59:58;7.97;;;5.50;;
76127;SDS011;64873;50.102;14.434;2024-02-15T08:02:23;11.70;;;6.00;;
76127;SDS011;64873;50.102;14.434;2024-02-15T08:04:50;8.15;;;5.32;;
76127;SDS011;64873;50.102;14.434;2024-02-15T08:07:16;7.15;;;4.95;;
76127;SDS011;64873;50.102;14.434;2024-02-15T08:09:42;8.90;;;5.68;;
76127;SDS011;64873;50.102;14.434;2024-02-15T08:12:08;8.77;;;4.78;;
76127;SDS011;64873;50.102;14.434;2024-02-15T08:14:34;7.45;;;4.85;;
76127;SDS011;64873;50.102;14.434;2024-02-15T08:16:59;7.13;;;4.65;;
76127;SDS011;64873;50.102;14.434;2024-02-15T08:19:25;7.95;;;5.45;;
76127;SDS011;64873;50.102;14.434;2024-02-15T08:21:52;10.52;;;5.45;;
76127;SDS011;64873;50.102;14.434;2024-02-15T08:24:17;8.43;;;5.10;;
76127;SDS011;64873;50.102;14.434;2024-02-15T08:26:43;8.75;;;5.00;;
76127;SDS011;64873;50.102;14.434;2024-02-15T08:29:08;9.10;;;5.22;;
76127;SDS011;64873;50.102;14.434;2024-02-15T08:31:40;7.00;;;4.65;;
76127;SDS011;64873;50.102;14.434;2024-02-15T08:34:06;7.07;;;4.38;;
76127;SDS011;64873;50.102;14.434;2024-02-15T08:36:35;8.70;;;4.90;;
76127;SDS011;64873;50.102;14.434;2024-02-15T08:39:00;8.52;;;4.75;;
76127;SDS011;64873;50.102;14.434;2024-02-15T08:41:26;7.00;;;4.70;;
76127;SDS011;64873;50.102;14.434;2024-02-15T08:43:52;7.90;;;4.60;;
76127;SDS011;64873;50.102;14.434;2024-02-15T08:46:18;11.18;;;4.63;;
76127;SDS011;64873;50.102;14.434;2024-02-15T08:48:44;9.73;;;5.20;;
76127;SDS011;64873;50.102;14.434;2024-02-15T08:51:13;8.60;;;4.68;;
76127;SDS011;64873;50.102;14.434;2024-02-15T08:53:38;10.63;;;4.75;;
76127;SDS011;64873;50.102;14.434;2024-02-15T08:56:04;8.48;;;4.80;;
76127;SDS011;64873;50.102;14.434;2024-02-15T08:58:30;8.07;;;4.80;;
76127;SDS011;64873;50.102;14.434;2024-02-15T09:00:56;9.15;;;5.10;;
76127;SDS011;64873;50.102;14.434;2024-02-15T09:03:22;6.25;;;4.15;;
76127;SDS011;64873;50.102;14.434;2024-02-15T09:05:47;9.70;;;4.63;;
76127;SDS011;64873;50.102;14.434;2024-02-15T09:08:13;8.15;;;4.40;;
76127;SDS011;64873;50.102;14.434;2024-02-15T09:10:40;5.72;;;4.28;;
76127;SDS011;64873;50.102;14.434;2024-02-15T09:13:06;7.32;;;4.13;;
76127;SDS011;64873;50.102;14.434;2024-02-15T09:15:32;6.13;;;4.03;;
76127;SDS011;64873;50.102;14.434;2024-02-15T09:17:57;6.03;;;4.13;;
76127;SDS011;64873;50.102;14.434;2024-02-15T09:20:23;9.68;;;4.40;;
76127;SDS011;64873;50.102;14.434;2024-02-15T09:22:53;9.70;;;4.32;;
76127;SDS011;64873;50.102;14.434;2024-02-15T09:25:19;5.18;;;3.30;;
76127;SDS011;64873;50.102;14.434;2024-02-15T09:27:48;4.95;;;3.65;;
76127;SDS011;64873;50.102;14.434;2024-02-15T09:30:15;5.95;;;3.92;;
76127;SDS011;64873;50.102;14.434;2024-02-15T09:32:41;5.60;;;3.55;;
76127;SDS011;64873;50.102;14.434;2024-02-15T09:35:08;10.48;;;3.67;;
76127;SDS011;64873;50.102;14.434;2024-02-15T09:37:37;6.82;;;3.85;;
76127;SDS011;64873;50.102;14.434;2024-02-15T09:40:14;4.90;;;3.63;;
76127;SDS011;64873;50.102;14.434;2024-02-15T09:42:42;6.10;;;3.78;;
76127;SDS011;64873;50.102;14.434;2024-02-15T09:45:10;7.25;;;3.42;;
76127;SDS011;64873;50.102;14.434;2024-02-15T09:47:40;6.18;;;3.65;;
76127;SDS011;64873;50.102;14.434;2024-02-15T09:50:08;8.18;;;3.40;;
76127;SDS011;64873;50.102;14.434;2024-02-15T09:52:36;4.82;;;3.33;;
76127;SDS011;64873;50.102;14.434;2024-02-15T09:55:16;3.60;;;2.83;;
76127;SDS011;64873;50.102;14.434;2024-02-15T09:57:42;6.15;;;2.85;;
76127;SDS011;64873;50.102;14.434;2024-02-15T10:00:10;6.25;;;3.58;;
76127;SDS011;64873;50.102;14.434;2024-02-15T10:02:41;6.25;;;3.15;;
76127;SDS011;64873;50.102;14.434;2024-02-15T10:05:18;7.15;;;3.13;;
76127;SDS011;64873;50.102;14.434;2024-02-15T10:07:43;6.57;;;3.08;;
76127;SDS011;64873;50.102;14.434;2024-02-15T10:12:42;7.63;;;3.45;;
76127;SDS011;64873;50.102;14.434;2024-02-15T10:15:56;5.13;;;3.50;;
76127;SDS011;64873;50.102;14.434;2024-02-15T10:18:05;4.22;;;2.45;;
76127;SDS011;64873;50.102;14.434;2024-02-15T10:20:39;3.20;;;2.58;;
76127;SDS011;64873;50.102;14.434;2024-02-15T10:23:11;4.88;;;2.63;;
76127;SDS011;64873;50.102;14.434;2024-02-15T10:25:39;4.25;;;2.60;;
76127;SDS011;64873;50.102;14.434;2024-02-15T10:28:05;3.65;;;2.53;;
76127;SDS011;64873;50.102;14.434;2024-02-15T10:30:35;3.30;;;2.47;;
76127;SDS011;64873;50.102;14.434;2024-02-15T10:33:04;5.57;;;2.65;;
76127;SDS011;64873;50.102;14.434;2024-02-15T10:35:32;4.50;;;2.67;;
76127;SDS011;64873;50.102;14.434;2024-02-15T10:38:08;3.97;;;2.53;;
76127;SDS011;64873;50.102;14.434;2024-02-15T10:40:35;3.58;;;2.40;;
76127;SDS011;64873;50.102;14.434;2024-02-15T10:43:05;3.90;;;2.53;;
76127;SDS011;64873;50.102;14.434;2024-02-15T10:45:31;4.25;;;2.70;;
76127;SDS011;64873;50.102;14.434;2024-02-15T10:47:57;5.45;;;2.80;;
76127;SDS011;64873;50.102;14.434;2024-02-15T10:50:23;4.72;;;2.45;;
76127;SDS011;64873;50.102;14.434;2024-02-15T10:52:56;3.38;;;2.15;;
76127;SDS011;64873;50.102;14.434;2024-02-15T10:55:31;4.53;;;2.65;;
76127;SDS011;64873;50.102;14.434;2024-02-15T10:58:03;4.60;;;2.78;;
76127;SDS011;64873;50.102;14.434;2024-02-15T11:00:34;3.85;;;2.35;;
76127;SDS011;64873;50.102;14.434;2024-02-15T11:03:07;3.55;;;2.20;;
76127;SDS011;64873;50.102;14.434;2024-02-15T11:05:36;3.22;;;1.90;;
76127;SDS011;64873;50.102;14.434;2024-02-15T11:08:05;4.88;;;2.13;;
76127;SDS011;64873;50.102;14.434;2024-02-15T11:10:33;2.55;;;1.55;;
76127;SDS011;64873;50.102;14.434;2024-02-15T11:13:01;2.15;;;1.40;;
76127;SDS011;64873;50.102;14.434;2024-02-15T11:15:40;2.25;;;1.63;;
76127;SDS011;64873;50.102;14.434;2024-02-15T11:21:14;2.30;;;1.73;;
76127;SDS011;64873;50.102;14.434;2024-02-15T11:23:42;3.78;;;1.98;;
76127;SDS011;64873;50.102;14.434;2024-02-15T11:26:42;3.55;;;1.70;;
76127;SDS011;64873;50.102;14.434;2024-02-15T11:29:47;3.83;;;2.28;;
76127;SDS011;64873;50.102;14.434;2024-02-15T11:32:59;2.80;;;1.60;;
76127;SDS011;64873;50.102;14.434;2024-02-15T11:35:23;3.92;;;2.55;;
76127;SDS011;64873;50.102;14.434;2024-02-15T11:37:50;5.18;;;1.80;;
76127;SDS011;64873;50.102;14.434;2024-02-15T11:40:22;5.70;;;1.65;;
76127;SDS011;64873;50.102;14.434;2024-02-15T11:42:53;3.27;;;1.60;;
76127;SDS011;64873;50.102;14.434;2024-02-15T11:47:55;2.92;;;1.50;;
76127;SDS011;64873;50.102;14.434;2024-02-15T11:50:21;3.92;;;1.50;;
76127;SDS011;64873;50.102;14.434;2024-02-15T11:52:47;2.88;;;1.45;;
76127;SDS011;64873;50.102;14.434;2024-02-15T11:55:19;2.88;;;1.55;;
76127;SDS011;64873;50.102;14.434;2024-02-15T11:58:19;2.15;;;1.45;;
76127;SDS011;64873;50.102;14.434;2024-02-15T12:00:57;2.95;;;1.40;;
76127;SDS011;64873;50.102;14.434;2024-02-15T12:03:42;3.80;;;1.52;;
76127;SDS011;64873;50.102;14.434;2024-02-15T12:06:30;2.80;;;1.58;;
76127;SDS011;64873;50.102;14.434;2024-02-15T12:09:17;2.42;;;1.48;;
76127;SDS011;64873;50.102;14.434;2024-02-15T12:12:02;4.93;;;1.55;;
76127;SDS011;64873;50.102;14.434;2024-02-15T12:14:46;2.20;;;1.45;;
76127;SDS011;64873;50.102;14.434;2024-02-15T12:17:31;2.75;;;1.40;;
76127;SDS011;64873;50.102;14.434;2024-02-15T12:20:15;2.38;;;2.00;;
76127;SDS011;64873;50.102;14.434;2024-02-15T12:22:42;2.00;;;1.50;;
76127;SDS011;64873;50.102;14.434;2024-02-15T12:25:13;3.13;;;1.80;;
76127;SDS011;64873;50.102;14.434;2024-02-15T12:27:41;4.43;;;2.28;;
76127;SDS011;64873;50.102;14.434;2024-02-15T12:30:08;4.03;;;1.92;;
76127;SDS011;64873;50.102;14.434;2024-02-15T12:32:39;2.67;;;1.58;;
76127;SDS011;64873;50.102;14.434;2024-02-15T12:35:11;2.28;;;1.42;;
76127;SDS011;64873;50.102;14.434;2024-02-15T12:38:08;1.98;;;1.38;;
76127;SDS011;64873;50.102;14.434;2024-02-15T12:40:35;3.60;;;1.50;;
76127;SDS011;64873;50.102;14.434;2024-02-15T12:43:02;2.72;;;1.60;;
76127;SDS011;64873;50.102;14.434;2024-02-15T12:45:39;3.38;;;2.08;;
76127;SDS011;64873;50.102;14.434;2024-02-15T12:48:06;4.18;;;2.70;;
76127;SDS011;64873;50.102;14.434;2024-02-15T12:50:33;2.10;;;1.30;;
76127;SDS011;64873;50.102;14.434;2024-02-15T12:53:00;3.95;;;1.10;;
76127;SDS011;64873;50.102;14.434;2024-02-15T12:55:38;3.08;;;1.23;;
76127;SDS011;64873;50.102;14.434;2024-02-15T12:58:06;4.72;;;1.40;;
76127;SDS011;64873;50.102;14.434;2024-02-15T13:00:38;2.90;;;1.17;;
76127;SDS011;64873;50.102;14.434;2024-02-15T13:03:08;7.22;;;1.35;;
76127;SDS011;64873;50.102;14.434;2024-02-15T13:05:53;5.85;;;1.15;;
76127;SDS011;64873;50.102;14.434;2024-02-15T13:08:18;2.15;;;1.13;;
76127;SDS011;64873;50.102;14.434;2024-02-15T13:10:45;6.75;;;1.80;;
76127;SDS011;64873;50.102;14.434;2024-02-15T13:13:10;4.28;;;1.58;;
76127;SDS011;64873;50.102;14.434;2024-02-15T13:15:36;3.22;;;1.73;;
76127;SDS011;64873;50.102;14.434;2024-02-15T13:18:02;3.38;;;1.80;;
76127;SDS011;64873;50.102;14.434;2024-02-15T13:20:30;6.18;;;1.77;;
76127;SDS011;64873;50.102;14.434;2024-02-15T13:23:03;2.63;;;1.67;;
76127;SDS011;64873;50.102;14.434;2024-02-15T13:25:40;5.10;;;2.00;;
76127;SDS011;64873;50.102;14.434;2024-02-15T13:28:08;2.50;;;1.40;;
76127;SDS011;64873;50.102;14.434;2024-02-15T13:30:35;5.20;;;1.70;;
76127;SDS011;64873;50.102;14.434;2024-02-15T13:33:01;11.05;;;2.13;;
76127;SDS011;64873;50.102;14.434;2024-02-15T13:35:27;2.80;;;1.80;;
76127;SDS011;64873;50.102;14.434;2024-02-15T13:37:53;4.20;;;1.80;;
76127;SDS011;64873;50.102;14.434;2024-02-15T13:40:19;3.53;;;1.70;;
76127;SDS011;64873;50.102;14.434;2024-02-15T13:42:49;4.90;;;2.15;;
76127;SDS011;64873;50.102;14.434;2024-02-15T13:45:30;5.45;;;2.20;;
76127;SDS011;64873;50.102;14.434;2024-02-15T13:48:00;3.13;;;1.85;;
76127;SDS011;64873;50.102;14.434;2024-02-15T13:50:27;3.05;;;1.90;;
76127;SDS011;64873;50.102;14.434;2024-02-15T13:52:54;10.93;;;2.10;;
76127;SDS011;64873;50.102;14.434;2024-02-15T13:55:19;4.13;;;1.80;;
76127;SDS011;64873;50.102;14.434;2024-02-15T13:57:49;5.78;;;1.90;;
76127;SDS011;64873;50.102;14.434;2024-02-15T14:00:15;3.53;;;1.92;;
76127;SDS011;64873;50.102;14.434;2024-02-15T14:02:56;2.53;;;1.55;;
76127;SDS011;64873;50.102;14.434;2024-02-15T14:05:27;6.65;;;2.22;;
76127;SDS011;64873;50.102;14.434;2024-02-15T14:07:55;2.55;;;1.60;;
76127;SDS011;64873;50.102;14.434;2024-02-15T14:10:22;3.40;;;1.75;;
76127;SDS011;64873;50.102;14.434;2024-02-15T14:12:49;4.53;;;1.98;;
76127;SDS011;64873;50.102;14.434;2024-02-15T14:15:17;9.68;;;1.98;;
76127;SDS011;64873;50.102;14.434;2024-02-15T14:17:43;4.85;;;1.92;;
76127;SDS011;64873;50.102;14.434;2024-02-15T14:20:10;7.70;;;1.88;;
76127;SDS011;64873;50.102;14.434;2024-02-15T14:22:46;5.65;;;1.77;;
76127;SDS011;64873;50.102;14.434;2024-02-15T14:25:15;3.50;;;1.75;;
76127;SDS011;64873;50.102;14.434;2024-02-15T14:27:41;4.03;;;1.60;;
76127;SDS011;64873;50.102;14.434;2024-02-15T14:30:07;6.43;;;2.10;;
76127;SDS011;64873;50.102;14.434;2024-02-15T14:32:52;9.65;;;1.67;;
76127;SDS011;64873;50.102;14.434;2024-02-15T14:37:59;6.93;;;1.60;;
76127;SDS011;64873;50.102;14.434;2024-02-15T14:40:37;6.53;;;2.00;;
76127;SDS011;64873;50.102;14.434;2024-02-15T14:43:05;7.90;;;1.42;;
76127;SDS011;64873;50.102;14.434;2024-02-15T14:45:34;5.03;;;1.30;;
76127;SDS011;64873;50.102;14.434;2024-02-15T14:48:01;3.58;;;1.48;;
76127;SDS011;64873;50.102;14.434;2024-02-15T14:50:28;3.78;;;1.40;;
76127;SDS011;64873;50.102;14.434;2024-02-15T14:52:54;7.47;;;1.60;;
76127;SDS011;64873;50.102;14.434;2024-02-15T14:55:19;3.03;;;1.45;;